sensor_id;sensor_type;location;lat;lon;timestamp;pressure;altitude;pressure_sealevel;temperature;humidity
77250;BME280;66287;42.658;27.568;2023-02-11T00:01:07;102034.00;;;9.51;39.81
77250;BME280;66287;42.658;27.568;2023-02-11T00:03:33;102034.84;;;9.51;39.37
77250;BME280;66287;42.658;27.568;2023-02-11T00:05:59;102032.84;;;9.53;39.81
77250;BME280;66287;42.658;27.568;2023-02-11T00:08:25;102040.81;;;9.55;39.29
77250;BME280;66287;42.658;27.568;2023-02-11T00:10:51;102035.69;;;9.52;39.70
77250;BME280;66287;42.658;27.568;2023-02-11T00:13:17;102024.03;;;9.51;39.48
77250;BME280;66287;42.658;27.568;2023-02-11T00:15:42;102030.56;;;9.49;39.20
77250;BME280;66287;42.658;27.568;2023-02-11T00:18:08;102030.72;;;9.47;39.20
77250;BME280;66287;42.658;27.568;2023-02-11T00:20:33;102026.16;;;9.48;39.43
77250;BME280;66287;42.658;27.568;2023-02-11T00:22:58;102018.75;;;9.50;39.96
77250;BME280;66287;42.658;27.568;2023-02-11T00:25:24;102019.59;;;9.50;39.29
77250;BME280;66287;42.658;27.568;2023-02-11T00:27:49;102023.31;;;9.49;39.72
77250;BME280;66287;42.658;27.568;2023-02-11T00:30:14;102023.63;;;9.46;38.98
77250;BME280;66287;42.658;27.568;2023-02-11T00:32:40;102014.50;;;9.47;39.42
77250;BME280;66287;42.658;27.568;2023-02-11T00:35:06;102016.34;;;9.47;38.95
77250;BME280;66287;42.658;27.568;2023-02-11T00:37:32;102021.59;;;9.48;38.74
77250;BME280;66287;42.658;27.568;2023-02-11T00:40:02;102020.75;;;9.48;39.46
77250;BME280;66287;42.658;27.568;2023-02-11T00:42:29;102025.16;;;9.49;38.86
77250;BME280;66287;42.658;27.568;2023-02-11T00:44:55;102019.91;;;9.47;39.36
77250;BME280;66287;42.658;27.568;2023-02-11T00:47:20;102021.75;;;9.47;38.87
77250;BME280;66287;42.658;27.568;2023-02-11T00:49:46;102020.06;;;9.46;39.37
77250;BME280;66287;42.658;27.568;2023-02-11T00:52:12;102010.06;;;9.46;39.36
77250;BME280;66287;42.658;27.568;2023-02-11T00:54:37;102008.06;;;9.48;39.80
77250;BME280;66287;42.658;27.568;2023-02-11T00:57:03;102010.94;;;9.47;38.87
77250;BME280;66287;42.658;27.568;2023-02-11T00:59:29;102009.22;;;9.46;39.04
77250;BME280;66287;42.658;27.568;2023-02-11T01:01:54;102003.81;;;9.46;38.65
77250;BME280;66287;42.658;27.568;2023-02-11T01:04:20;102001.25;;;9.44;39.14
77250;BME280;66287;42.658;27.568;2023-02-11T01:06:45;102003.13;;;9.44;39.82
77250;BME280;66287;42.658;27.568;2023-02-11T01:09:11;102004.13;;;9.43;39.29
77250;BME280;66287;42.658;27.568;2023-02-11T01:11:36;102004.81;;;9.45;38.99
77250;BME280;66287;42.658;27.568;2023-02-11T01:14:02;102006.81;;;9.43;39.52
77250;BME280;66287;42.658;27.568;2023-02-11T01:16:28;102008.53;;;9.44;38.87
77250;BME280;66287;42.658;27.568;2023-02-11T01:18:53;102005.81;;;9.44;39.04
77250;BME280;66287;42.658;27.568;2023-02-11T01:21:19;102013.38;;;9.40;39.41
77250;BME280;66287;42.658;27.568;2023-02-11T01:23:44;102001.72;;;9.40;39.56
77250;BME280;66287;42.658;27.568;2023-02-11T01:26:10;102003.41;;;9.41;39.37
77250;BME280;66287;42.658;27.568;2023-02-11T01:28:35;101993.44;;;9.41;38.89
77250;BME280;66287;42.658;27.568;2023-02-11T01:31:01;101994.44;;;9.40;39.78
77250;BME280;66287;42.658;27.568;2023-02-11T01:33:27;102000.19;;;9.37;39.71
77250;BME280;66287;42.658;27.568;2023-02-11T01:35:52;102002.75;;;9.39;39.50
77250;BME280;66287;42.658;27.568;2023-02-11T01:38:19;101994.63;;;9.39;39.61
77250;BME280;66287;42.658;27.568;2023-02-11T01:40:52;101997.63;;;9.36;39.62
77250;BME280;66287;42.658;27.568;2023-02-11T01:43:18;101990.50;;;9.35;39.62
77250;BME280;66287;42.658;27.568;2023-02-11T01:48:11;101987.09;;;9.32;39.24
77250;BME280;66287;42.658;27.568;2023-02-11T01:50:39;101975.56;;;9.30;39.82
77250;BME280;66287;42.658;27.568;2023-02-11T01:53:06;101980.13;;;9.30;39.88
77250;BME280;66287;42.658;27.568;2023-02-11T01:55:51;101977.88;;;9.25;39.44
77250;BME280;66287;42.658;27.568;2023-02-11T01:58:36;101982.56;;;9.23;39.94
77250;BME280;66287;42.658;27.568;2023-02-11T02:01:03;101978.31;;;9.21;39.85
77250;BME280;66287;42.658;27.568;2023-02-11T02:03:28;101974.75;;;9.20;39.33
77250;BME280;66287;42.658;27.568;2023-02-11T02:10:49;101974.94;;;9.19;39.94
77250;BME280;66287;42.658;27.568;2023-02-11T02:13:18;101972.22;;;9.19;40.08
77250;BME280;66287;42.658;27.568;2023-02-11T02:15:48;101971.38;;;9.18;40.59
77250;BME280;66287;42.658;27.568;2023-02-11T02:31:37;101972.97;;;9.11;40.68
77250;BME280;66287;42.658;27.568;2023-02-11T02:34:29;101969.41;;;9.11;41.04
77250;BME280;66287;42.658;27.568;2023-02-11T02:37:27;101973.97;;;9.10;40.52
77250;BME280;66287;42.658;27.568;2023-02-11T02:39:44;101970.13;;;9.13;40.30
77250;BME280;66287;42.658;27.568;2023-02-11T02:42:11;101977.38;;;9.12;40.48
77250;BME280;66287;42.658;27.568;2023-02-11T02:44:37;101971.28;;;9.10;40.81
77250;BME280;66287;42.658;27.568;2023-02-11T02:47:03;101977.69;;;9.09;40.58
77250;BME280;66287;42.658;27.568;2023-02-11T02:49:28;101984.78;;;9.10;39.78
77250;BME280;66287;42.658;27.568;2023-02-11T03:04:59;101970.56;;;9.08;39.84
77250;BME280;66287;42.658;27.568;2023-02-11T03:10:05;101978.81;;;9.07;39.99
77250;BME280;66287;42.658;27.568;2023-02-11T03:12:32;101980.69;;;9.06;40.38
77250;BME280;66287;42.658;27.568;2023-02-11T03:14:59;101981.66;;;9.05;40.61
77250;BME280;66287;42.658;27.568;2023-02-11T03:17:25;101979.97;;;9.04;40.27
77250;BME280;66287;42.658;27.568;2023-02-11T03:19:52;101978.56;;;9.00;40.49
77250;BME280;66287;42.658;27.568;2023-02-11T03:22:25;101988.38;;;9.01;39.91
77250;BME280;66287;42.658;27.568;2023-02-11T03:24:51;101993.09;;;8.99;40.30
77250;BME280;66287;42.658;27.568;2023-02-11T03:27:26;101982.28;;;8.99;40.43
77250;BME280;66287;42.658;27.568;2023-02-11T03:32:40;101970.91;;;8.95;40.53
77250;BME280;66287;42.658;27.568;2023-02-11T03:37:40;101971.78;;;8.96;40.72
77250;BME280;66287;42.658;27.568;2023-02-11T03:42:38;101982.88;;;8.93;41.05
77250;BME280;66287;42.658;27.568;2023-02-11T03:45:07;101978.47;;;8.92;40.50
77250;BME280;66287;42.658;27.568;2023-02-11T03:47:34;101982.03;;;8.92;40.60
77250;BME280;66287;42.658;27.568;2023-02-11T03:50:02;101975.06;;;8.90;40.96
77250;BME280;66287;42.658;27.568;2023-02-11T03:52:29;101980.59;;;8.88;40.10
77250;BME280;66287;42.658;27.568;2023-02-11T03:54:56;101979.75;;;8.88;40.68
77250;BME280;66287;42.658;27.568;2023-02-11T03:57:22;101977.50;;;8.83;40.50
77250;BME280;66287;42.658;27.568;2023-02-11T03:59:48;101983.03;;;8.82;40.96
77250;BME280;66287;42.658;27.568;2023-02-11T04:02:14;101976.63;;;8.83;40.46
77250;BME280;66287;42.658;27.568;2023-02-11T04:04:39;101982.91;;;8.83;40.42
77250;BME280;66287;42.658;27.568;2023-02-11T04:07:04;101991.84;;;8.84;40.73
77250;BME280;66287;42.658;27.568;2023-02-11T04:09:30;101988.59;;;8.80;40.75
77250;BME280;66287;42.658;27.568;2023-02-11T04:11:55;101983.03;;;8.82;41.08
77250;BME280;66287;42.658;27.568;2023-02-11T04:14:20;101977.78;;;8.80;40.52
77250;BME280;66287;42.658;27.568;2023-02-11T04:16:46;101983.19;;;8.80;41.24
77250;BME280;66287;42.658;27.568;2023-02-11T04:19:11;101977.09;;;8.78;40.76
77250;BME280;66287;42.658;27.568;2023-02-11T04:21:37;101976.25;;;8.78;41.35
77250;BME280;66287;42.658;27.568;2023-02-11T04:24:02;101976.25;;;8.78;40.16
77250;BME280;66287;42.658;27.568;2023-02-11T04:26:27;101977.97;;;8.79;41.16
77250;BME280;66287;42.658;27.568;2023-02-11T04:28:53;101983.38;;;8.79;40.09
77250;BME280;66287;42.658;27.568;2023-02-11T04:31:18;101972.84;;;8.76;40.58
77250;BME280;66287;42.658;27.568;2023-02-11T04:33:44;101977.53;;;8.74;40.42
77250;BME280;66287;42.658;27.568;2023-02-11T04:36:09;101979.53;;;8.72;40.46
77250;BME280;66287;42.658;27.568;2023-02-11T04:38:35;101976.13;;;8.70;40.48
77250;BME280;66287;42.658;27.568;2023-02-11T04:41:00;101975.28;;;8.69;40.33
77250;BME280;66287;42.658;27.568;2023-02-11T04:43:25;101972.72;;;8.68;40.45
77250;BME280;66287;42.658;27.568;2023-02-11T04:45:51;101962.19;;;8.64;40.56
77250;BME280;66287;42.658;27.568;2023-02-11T04:48:16;101963.03;;;8.65;41.29
77250;BME280;66287;42.658;27.568;2023-02-11T04:50:42;101963.91;;;8.66;40.74
77250;BME280;66287;42.658;27.568;2023-02-11T04:53:07;101963.03;;;8.65;40.97
77250;BME280;66287;42.658;27.568;2023-02-11T04:55:32;101958.78;;;8.62;40.59
77250;BME280;66287;42.658;27.568;2023-02-11T04:57:58;101957.78;;;8.63;40.88
77250;BME280;66287;42.658;27.568;2023-02-11T05:00:23;101960.50;;;8.63;41.43
77250;BME280;66287;42.658;27.568;2023-02-11T05:02:48;101958.78;;;8.62;40.65
77250;BME280;66287;42.658;27.568;2023-02-11T05:05:14;101956.94;;;8.63;40.86
77250;BME280;66287;42.658;27.568;2023-02-11T05:07:39;101953.38;;;8.62;41.52
77250;BME280;66287;42.658;27.568;2023-02-11T05:10:05;101948.69;;;8.64;40.79
77250;BME280;66287;42.658;27.568;2023-02-11T05:12:30;101954.94;;;8.65;41.15
77250;BME280;66287;42.658;27.568;2023-02-11T05:14:55;101948.53;;;8.66;40.98
77250;BME280;66287;42.658;27.568;2023-02-11T05:17:21;101950.09;;;8.69;41.38
77250;BME280;66287;42.658;27.568;2023-02-11T05:19:46;101955.34;;;8.70;40.93
77250;BME280;66287;42.658;27.568;2023-02-11T05:22:12;101950.50;;;8.74;40.71
77250;BME280;66287;42.658;27.568;2023-02-11T05:24:37;101941.97;;;8.78;40.88
77250;BME280;66287;42.658;27.568;2023-02-11T05:27:02;101951.03;;;8.87;41.72
77250;BME280;66287;42.658;27.568;2023-02-11T05:29:28;101953.22;;;9.01;41.71
77250;BME280;66287;42.658;27.568;2023-02-11T05:31:53;101952.38;;;9.28;40.72
77250;BME280;66287;42.658;27.568;2023-02-11T05:34:19;101956.06;;;9.54;40.60
77250;BME280;66287;42.658;27.568;2023-02-11T05:36:44;101954.13;;;9.64;39.61
77250;BME280;66287;42.658;27.568;2023-02-11T05:39:10;101959.78;;;9.71;39.07
77250;BME280;66287;42.658;27.568;2023-02-11T05:41:35;101953.06;;;9.75;40.02
77250;BME280;66287;42.658;27.568;2023-02-11T05:44:00;101953.09;;;9.83;39.34
77250;BME280;66287;42.658;27.568;2023-02-11T05:46:26;101954.91;;;9.92;39.05
77250;BME280;66287;42.658;27.568;2023-02-11T05:48:51;101955.66;;;10.02;39.82
77250;BME280;66287;42.658;27.568;2023-02-11T05:51:17;101964.94;;;10.18;38.92
77250;BME280;66287;42.658;27.568;2023-02-11T05:53:42;101965.13;;;10.42;39.19
77250;BME280;66287;42.658;27.568;2023-02-11T05:56:08;101957.72;;;10.70;38.61
77250;BME280;66287;42.658;27.568;2023-02-11T05:58:34;101954.97;;;10.96;38.36
77250;BME280;66287;42.658;27.568;2023-02-11T06:01:00;101960.66;;;11.19;38.03
77250;BME280;66287;42.658;27.568;2023-02-11T06:03:25;101955.28;;;11.43;38.13
77250;BME280;66287;42.658;27.568;2023-02-11T06:05:50;101960.47;;;11.70;37.94
77250;BME280;66287;42.658;27.568;2023-02-11T06:08:16;101959.69;;;11.94;37.69
77250;BME280;66287;42.658;27.568;2023-02-11T06:10:43;101966.47;;;12.23;37.30
77250;BME280;66287;42.658;27.568;2023-02-11T06:13:09;101961.34;;;12.52;37.31
77250;BME280;66287;42.658;27.568;2023-02-11T06:15:34;101967.91;;;12.82;36.96
77250;BME280;66287;42.658;27.568;2023-02-11T06:17:59;101960.66;;;13.14;36.22
77250;BME280;66287;42.658;27.568;2023-02-11T06:20:25;101956.94;;;13.45;36.29
77250;BME280;66287;42.658;27.568;2023-02-11T06:22:50;101957.78;;;13.77;35.80
77250;BME280;66287;42.658;27.568;2023-02-11T06:25:16;101951.59;;;14.06;35.51
77250;BME280;66287;42.658;27.568;2023-02-11T06:27:41;101960.53;;;14.37;35.41
77250;BME280;66287;42.658;27.568;2023-02-11T06:30:07;101953.09;;;14.69;35.20
77250;BME280;66287;42.658;27.568;2023-02-11T06:32:32;101949.13;;;15.01;34.89
77250;BME280;66287;42.658;27.568;2023-02-11T06:34:58;101958.13;;;15.31;33.85
77250;BME280;66287;42.658;27.568;2023-02-11T06:37:23;101953.66;;;15.59;33.41
77250;BME280;66287;42.658;27.568;2023-02-11T06:39:49;101955.72;;;15.93;34.08
77250;BME280;66287;42.658;27.568;2023-02-11T06:42:14;101961.88;;;16.23;33.25
77250;BME280;66287;42.658;27.568;2023-02-11T06:44:40;101956.44;;;16.51;27.19
77250;BME280;66287;42.658;27.568;2023-02-11T06:47:05;101953.22;;;16.69;29.31
77250;BME280;66287;42.658;27.568;2023-02-11T06:49:31;101952.97;;;16.92;27.54
77250;BME280;66287;42.658;27.568;2023-02-11T06:51:56;101953.66;;;17.07;25.31
77250;BME280;66287;42.658;27.568;2023-02-11T06:54:22;101958.34;;;17.13;24.02
77250;BME280;66287;42.658;27.568;2023-02-11T06:56:47;101949.97;;;17.28;25.59
77250;BME280;66287;42.658;27.568;2023-02-11T06:59:14;101946.78;;;17.17;19.75
77250;BME280;66287;42.658;27.568;2023-02-11T07:01:39;101952.47;;;16.53;19.61
77250;BME280;66287;42.658;27.568;2023-02-11T07:04:05;101951.53;;;16.68;22.65
77250;BME280;66287;42.658;27.568;2023-02-11T07:06:32;101946.84;;;17.31;25.25
77250;BME280;66287;42.658;27.568;2023-02-11T07:08:57;101952.88;;;17.67;20.33
77250;BME280;66287;42.658;27.568;2023-02-11T07:11:24;101950.59;;;17.84;19.28
77250;BME280;66287;42.658;27.568;2023-02-11T07:13:50;101952.06;;;16.84;17.47
77250;BME280;66287;42.658;27.568;2023-02-11T07:16:16;101941.47;;;16.47;19.53
77250;BME280;66287;42.658;27.568;2023-02-11T07:18:42;101946.88;;;17.37;20.62
77250;BME280;66287;42.658;27.568;2023-02-11T07:21:08;101946.63;;;17.32;22.36
77250;BME280;66287;42.658;27.568;2023-02-11T07:23:35;101940.09;;;17.94;20.86
77250;BME280;66287;42.658;27.568;2023-02-11T07:26:01;101941.78;;;18.74;20.72
77250;BME280;66287;42.658;27.568;2023-02-11T07:28:27;101938.69;;;17.50;18.40
77250;BME280;66287;42.658;27.568;2023-02-11T07:30:52;101953.09;;;16.83;18.28
77250;BME280;66287;42.658;27.568;2023-02-11T07:33:18;101938.97;;;16.03;19.55
77250;BME280;66287;42.658;27.568;2023-02-11T07:35:43;101932.78;;;16.37;20.60
77250;BME280;66287;42.658;27.568;2023-02-11T07:38:09;101935.81;;;16.76;19.95
77250;BME280;66287;42.658;27.568;2023-02-11T07:40:34;101927.84;;;17.97;18.42
77250;BME280;66287;42.658;27.568;2023-02-11T07:43:00;101922.19;;;17.44;18.22
77250;BME280;66287;42.658;27.568;2023-02-11T07:45:26;101927.09;;;17.55;18.65
77250;BME280;66287;42.658;27.568;2023-02-11T07:47:51;101927.38;;;17.80;17.87
77250;BME280;66287;42.658;27.568;2023-02-11T07:50:16;101918.75;;;18.55;19.99
77250;BME280;66287;42.658;27.568;2023-02-11T07:52:42;101920.47;;;18.30;17.16
77250;BME280;66287;42.658;27.568;2023-02-11T07:55:07;101915.75;;;18.83;17.54
77250;BME280;66287;42.658;27.568;2023-02-11T07:57:34;101913.41;;;19.45;17.19
77250;BME280;66287;42.658;27.568;2023-02-11T07:59:59;101922.31;;;18.82;16.94
77250;BME280;66287;42.658;27.568;2023-02-11T08:02:25;101925.94;;;18.50;17.97
77250;BME280;66287;42.658;27.568;2023-02-11T08:04:50;101916.22;;;18.41;16.73
77250;BME280;66287;42.658;27.568;2023-02-11T08:07:16;101925.03;;;18.96;17.94
77250;BME280;66287;42.658;27.568;2023-02-11T08:09:41;101907.13;;;19.31;17.06
77250;BME280;66287;42.658;27.568;2023-02-11T08:12:07;101919.22;;;19.68;17.59
77250;BME280;66287;42.658;27.568;2023-02-11T08:14:32;101931.53;;;19.59;17.33
77250;BME280;66287;42.658;27.568;2023-02-11T08:16:58;101919.13;;;18.79;17.91
77250;BME280;66287;42.658;27.568;2023-02-11T08:19:23;101918.31;;;18.78;17.24
77250;BME280;66287;42.658;27.568;2023-02-11T08:21:49;101908.59;;;18.76;18.13
77250;BME280;66287;42.658;27.568;2023-02-11T08:24:14;101913.22;;;18.82;17.25
77250;BME280;66287;42.658;27.568;2023-02-11T08:26:40;101905.03;;;19.26;17.32
77250;BME280;66287;42.658;27.568;2023-02-11T08:29:07;101907.25;;;19.87;18.15
77250;BME280;66287;42.658;27.568;2023-02-11T08:31:33;101902.72;;;19.68;16.65
77250;BME280;66287;42.658;27.568;2023-02-11T08:33:59;101905.91;;;18.30;17.90
77250;BME280;66287;42.658;27.568;2023-02-11T08:36:30;101897.00;;;18.67;18.81
77250;BME280;66287;42.658;27.568;2023-02-11T08:38:57;101900.81;;;18.00;18.85
77250;BME280;66287;42.658;27.568;2023-02-11T08:41:32;101900.94;;;18.91;19.09
77250;BME280;66287;42.658;27.568;2023-02-11T08:43:57;101902.69;;;19.30;17.12
77250;BME280;66287;42.658;27.568;2023-02-11T08:46:23;101896.78;;;18.75;17.08
77250;BME280;66287;42.658;27.568;2023-02-11T08:48:48;101890.06;;;17.92;18.15
77250;BME280;66287;42.658;27.568;2023-02-11T08:51:18;101898.53;;;17.97;16.77
77250;BME280;66287;42.658;27.568;2023-02-11T08:53:44;101886.69;;;19.14;18.42
77250;BME280;66287;42.658;27.568;2023-02-11T08:56:09;101883.13;;;19.07;15.68
77250;BME280;66287;42.658;27.568;2023-02-11T08:58:35;101878.25;;;19.09;16.16
77250;BME280;66287;42.658;27.568;2023-02-11T09:01:01;101880.81;;;19.48;15.41
77250;BME280;66287;42.658;27.568;2023-02-11T09:03:26;101882.78;;;17.45;16.46
77250;BME280;66287;42.658;27.568;2023-02-11T09:05:51;101881.19;;;16.40;15.99
77250;BME280;66287;42.658;27.568;2023-02-11T09:08:17;101875.91;;;16.32;16.09
77250;BME280;66287;42.658;27.568;2023-02-11T09:10:43;101880.22;;;16.48;17.17
77250;BME280;66287;42.658;27.568;2023-02-11T09:13:09;101864.72;;;17.70;16.63
77250;BME280;66287;42.658;27.568;2023-02-11T09:15:34;101852.06;;;19.00;16.04
77250;BME280;66287;42.658;27.568;2023-02-11T09:18:00;101862.91;;;19.33;14.73
77250;BME280;66287;42.658;27.568;2023-02-11T09:20:26;101856.91;;;20.55;15.46
77250;BME280;66287;42.658;27.568;2023-02-11T09:22:52;101850.25;;;19.63;14.46
77250;BME280;66287;42.658;27.568;2023-02-11T09:25:17;101838.34;;;17.82;15.39
77250;BME280;66287;42.658;27.568;2023-02-11T09:27:43;101827.19;;;17.84;15.55
77250;BME280;66287;42.658;27.568;2023-02-11T09:30:08;101826.50;;;17.55;15.61
77250;BME280;66287;42.658;27.568;2023-02-11T09:32:34;101822.53;;;18.04;17.58
77250;BME280;66287;42.658;27.568;2023-02-11T09:34:59;101814.59;;;18.67;15.07
77250;BME280;66287;42.658;27.568;2023-02-11T09:37:25;101815.56;;;18.92;15.40
77250;BME280;66287;42.658;27.568;2023-02-11T09:39:50;101811.22;;;18.72;14.95
77250;BME280;66287;42.658;27.568;2023-02-11T09:45:12;101804.44;;;21.58;15.80
77250;BME280;66287;42.658;27.568;2023-02-11T09:47:47;101796.97;;;20.50;14.28
77250;BME280;66287;42.658;27.568;2023-02-11T09:53:17;101786.53;;;21.37;13.07
77250;BME280;66287;42.658;27.568;2023-02-11T09:55:48;101798.13;;;22.39;13.16
77250;BME280;66287;42.658;27.568;2023-02-11T09:58:26;101786.44;;;19.79;13.77
77250;BME280;66287;42.658;27.568;2023-02-11T10:03:52;101775.53;;;20.34;15.35
77250;BME280;66287;42.658;27.568;2023-02-11T10:06:44;101770.97;;;20.46;15.57
77250;BME280;66287;42.658;27.568;2023-02-11T10:09:14;101767.22;;;21.49;15.43
77250;BME280;66287;42.658;27.568;2023-02-11T10:17:09;101754.63;;;22.98;14.32
77250;BME280;66287;42.658;27.568;2023-02-11T10:22:41;101748.41;;;21.16;14.85
77250;BME280;66287;42.658;27.568;2023-02-11T10:31:12;101740.81;;;24.32;13.54
77250;BME280;66287;42.658;27.568;2023-02-11T10:33:52;101733.03;;;24.99;11.95
77250;BME280;66287;42.658;27.568;2023-02-11T10:36:20;101733.06;;;24.34;13.39
77250;BME280;66287;42.658;27.568;2023-02-11T10:38:48;101723.41;;;22.46;12.34
77250;BME280;66287;42.658;27.568;2023-02-11T10:41:17;101716.53;;;21.20;13.18
77250;BME280;66287;42.658;27.568;2023-02-11T10:43:44;101714.69;;;19.00;14.45
77250;BME280;66287;42.658;27.568;2023-02-11T10:46:14;101710.44;;;20.40;14.71
77250;BME280;66287;42.658;27.568;2023-02-11T10:48:44;101707.97;;;21.86;13.94
77250;BME280;66287;42.658;27.568;2023-02-11T10:53:42;101706.88;;;23.19;14.23
77250;BME280;66287;42.658;27.568;2023-02-11T10:56:09;101705.06;;;24.14;12.99
77250;BME280;66287;42.658;27.568;2023-02-11T10:58:45;101695.44;;;22.71;11.65
77250;BME280;66287;42.658;27.568;2023-02-11T11:01:18;101694.63;;;22.30;13.17
77250;BME280;66287;42.658;27.568;2023-02-11T11:03:45;101684.59;;;21.01;13.75
77250;BME280;66287;42.658;27.568;2023-02-11T11:06:11;101684.53;;;22.24;14.20
77250;BME280;66287;42.658;27.568;2023-02-11T11:08:41;101671.66;;;22.69;12.65
77250;BME280;66287;42.658;27.568;2023-02-11T11:11:08;101675.09;;;21.85;13.11
77250;BME280;66287;42.658;27.568;2023-02-11T11:13:35;101668.25;;;21.29;13.32
77250;BME280;66287;42.658;27.568;2023-02-11T11:16:06;101683.94;;;22.33;14.05
77250;BME280;66287;42.658;27.568;2023-02-11T11:18:31;101671.50;;;23.05;13.34
77250;BME280;66287;42.658;27.568;2023-02-11T11:23:22;101669.34;;;21.40;13.32
77250;BME280;66287;42.658;27.568;2023-02-11T11:28:24;101664.03;;;23.22;13.72
77250;BME280;66287;42.658;27.568;2023-02-11T11:30:50;101651.44;;;22.12;13.30
77250;BME280;66287;42.658;27.568;2023-02-11T11:33:21;101650.16;;;20.50;14.14
77250;BME280;66287;42.658;27.568;2023-02-11T11:38:29;101645.81;;;21.95;14.05
77250;BME280;66287;42.658;27.568;2023-02-11T11:43:39;101632.13;;;22.00;13.40
77250;BME280;66287;42.658;27.568;2023-02-11T11:46:21;101628.31;;;21.43;13.89
77250;BME280;66287;42.658;27.568;2023-02-11T11:48:47;101625.06;;;22.90;12.99
77250;BME280;66287;42.658;27.568;2023-02-11T11:51:13;101614.53;;;24.68;12.36
77250;BME280;66287;42.658;27.568;2023-02-11T11:56:33;101615.97;;;23.61;12.67
77250;BME280;66287;42.658;27.568;2023-02-11T11:59:01;101608.00;;;23.65;12.76
77250;BME280;66287;42.658;27.568;2023-02-11T12:14:11;101582.84;;;24.91;11.98
77250;BME280;66287;42.658;27.568;2023-02-11T12:16:42;101588.75;;;26.46;12.16
77250;BME280;66287;42.658;27.568;2023-02-11T12:39:45;101556.25;;;26.77;11.13
77250;BME280;66287;42.658;27.568;2023-02-11T12:45:07;101558.72;;;26.43;10.51
77250;BME280;66287;42.658;27.568;2023-02-11T12:55:44;101545.72;;;23.46;12.26
77250;BME280;66287;42.658;27.568;2023-02-11T12:58:12;101541.50;;;23.82;12.08
77250;BME280;66287;42.658;27.568;2023-02-11T13:08:03;101533.41;;;26.34;11.23
77250;BME280;66287;42.658;27.568;2023-02-11T13:10:32;101532.28;;;26.40;11.36
77250;BME280;66287;42.658;27.568;2023-02-11T13:13:00;101532.03;;;26.52;9.32
77250;BME280;66287;42.658;27.568;2023-02-11T13:15:42;101526.13;;;26.13;10.58
77250;BME280;66287;42.658;27.568;2023-02-11T13:31:54;101525.56;;;23.28;12.15
77250;BME280;66287;42.658;27.568;2023-02-11T13:37:04;101517.03;;;25.13;12.04
77250;BME280;66287;42.658;27.568;2023-02-11T13:39:30;101514.13;;;25.35;11.07
77250;BME280;66287;42.658;27.568;2023-02-11T13:42:00;101515.38;;;24.80;11.02
77250;BME280;66287;42.658;27.568;2023-02-11T13:44:26;101507.31;;;25.11;12.48
77250;BME280;66287;42.658;27.568;2023-02-11T13:49:22;101512.69;;;22.84;11.79
77250;BME280;66287;42.658;27.568;2023-02-11T13:51:47;101503.81;;;23.54;12.02
77250;BME280;66287;42.658;27.568;2023-02-11T13:54:24;101513.69;;;24.20;11.89
77250;BME280;66287;42.658;27.568;2023-02-11T14:10:51;101492.13;;;22.29;12.28
77250;BME280;66287;42.658;27.568;2023-02-11T14:18:38;101488.19;;;24.77;11.78
77250;BME280;66287;42.658;27.568;2023-02-11T14:29:02;101471.47;;;23.38;12.66
77250;BME280;66287;42.658;27.568;2023-02-11T14:31:35;101477.94;;;23.92;12.75
77250;BME280;66287;42.658;27.568;2023-02-11T14:39:14;101466.75;;;23.16;12.52
77250;BME280;66287;42.658;27.568;2023-02-11T14:41:43;101479.34;;;22.74;12.97
77250;BME280;66287;42.658;27.568;2023-02-11T14:44:13;101468.44;;;23.00;12.69
77250;BME280;66287;42.658;27.568;2023-02-11T14:46:42;101474.22;;;22.99;12.91
77250;BME280;66287;42.658;27.568;2023-02-11T14:49:11;101457.16;;;22.52;13.68
77250;BME280;66287;42.658;27.568;2023-02-11T14:51:40;101473.88;;;22.12;14.26
77250;BME280;66287;42.658;27.568;2023-02-11T14:54:18;101461.16;;;21.99;15.04
77250;BME280;66287;42.658;27.568;2023-02-11T14:57:05;101468.31;;;21.55;15.43
77250;BME280;66287;42.658;27.568;2023-02-11T14:59:31;101461.56;;;21.22;15.83
77250;BME280;66287;42.658;27.568;2023-02-11T15:01:56;101466.94;;;21.29;16.13
77250;BME280;66287;42.658;27.568;2023-02-11T15:04:26;101462.75;;;21.03;16.20
77250;BME280;66287;42.658;27.568;2023-02-11T15:06:52;101460.59;;;20.70;16.46
77250;BME280;66287;42.658;27.568;2023-02-11T15:09:19;101455.06;;;20.58;16.57
77250;BME280;66287;42.658;27.568;2023-02-11T15:11:49;101462.09;;;20.31;17.10
77250;BME280;66287;42.658;27.568;2023-02-11T15:14:18;101455.47;;;20.20;18.20
77250;BME280;66287;42.658;27.568;2023-02-11T15:16:46;101453.88;;;20.01;18.12
77250;BME280;66287;42.658;27.568;2023-02-11T15:19:20;101449.09;;;19.97;18.74
77250;BME280;66287;42.658;27.568;2023-02-11T15:21:47;101447.97;;;19.86;19.07
77250;BME280;66287;42.658;27.568;2023-02-11T15:24:23;101454.97;;;19.70;19.21
77250;BME280;66287;42.658;27.568;2023-02-11T15:27:03;101452.34;;;19.39;19.66
77250;BME280;66287;42.658;27.568;2023-02-11T15:29:42;101442.53;;;19.31;19.88
77250;BME280;66287;42.658;27.568;2023-02-11T15:34:33;101451.81;;;19.48;19.99
77250;BME280;66287;42.658;27.568;2023-02-11T15:37:02;101456.72;;;19.46;20.14
77250;BME280;66287;42.658;27.568;2023-02-11T15:39:29;101450.84;;;19.43;20.07
77250;BME280;66287;42.658;27.568;2023-02-11T15:41:55;101455.59;;;19.36;20.54
77250;BME280;66287;42.658;27.568;2023-02-11T15:44:31;101453.81;;;19.23;20.76
77250;BME280;66287;42.658;27.568;2023-02-11T15:46:57;101455.06;;;19.09;20.95
77250;BME280;66287;42.658;27.568;2023-02-11T15:49:23;101444.84;;;18.98;21.25
77250;BME280;66287;42.658;27.568;2023-02-11T15:51:49;101448.31;;;18.86;21.10